createdAt,value
2023-05-09T00:00:13.701Z,3.50
2023-05-09T00:02:17.149Z,3.60
2023-05-09T00:04:21.333Z,3.47
2023-05-09T00:06:24.177Z,3.17
2023-05-09T00:08:27.146Z,3.50
2023-05-09T00:10:29.982Z,4.30
2023-05-09T00:12:32.732Z,3.87
2023-05-09T00:14:35.729Z,3.67
2023-05-09T00:16:38.486Z,3.90
2023-05-09T00:18:42.289Z,3.30
2023-05-09T00:20:46.411Z,3.77
2023-05-09T00:22:49.152Z,3.90
2023-05-09T00:24:52.110Z,3.90
2023-05-09T00:26:54.836Z,3.40
2023-05-09T00:28:57.628Z,3.87
2023-05-09T00:31:00.408Z,3.37
2023-05-09T00:33:03.160Z,3.80
2023-05-09T00:35:06.996Z,3.30
2023-05-09T00:37:11.083Z,3.87
2023-05-09T00:39:14.175Z,3.13
2023-05-09T00:41:16.881Z,3.80
2023-05-09T00:43:19.632Z,3.60
2023-05-09T00:45:22.363Z,4.00
2023-05-09T00:47:25.123Z,3.87
2023-05-09T00:49:27.990Z,3.70
2023-05-09T00:51:30.768Z,3.93
2023-05-09T00:53:34.925Z,3.87
2023-05-09T00:55:37.691Z,3.90
2023-05-09T00:57:40.526Z,4.20
2023-05-09T00:59:43.287Z,3.90
2023-05-09T01:01:46.285Z,4.37
2023-05-09T01:03:49.247Z,4.17
2023-05-09T01:05:56.473Z,4.20
2023-05-09T01:08:03.616Z,3.77
2023-05-09T01:10:11.192Z,4.30
2023-05-09T01:12:17.689Z,3.90
2023-05-09T01:14:26.694Z,4.00
2023-05-09T01:16:32.141Z,3.80
2023-05-09T01:18:37.277Z,4.03
2023-05-09T01:20:41.005Z,3.87
2023-05-09T01:22:46.408Z,3.77
2023-05-09T01:25:03.058Z,3.93
2023-05-09T01:27:17.194Z,3.87
2023-05-09T01:29:37.345Z,4.20
2023-05-09T01:31:41.868Z,3.80
2023-05-09T01:33:44.774Z,3.93
2023-05-09T01:35:50.065Z,4.33
2023-05-09T01:37:52.832Z,4.37
2023-05-09T01:39:55.635Z,4.00
2023-05-09T01:41:59.607Z,3.93
2023-05-09T01:44:03.430Z,3.40
2023-05-09T01:46:07.767Z,4.43
2023-05-09T01:48:10.611Z,3.93
2023-05-09T01:50:13.567Z,4.37
2023-05-09T01:52:17.673Z,4.10
2023-05-09T01:54:20.456Z,4.07
2023-05-09T01:56:23.352Z,4.47
2023-05-09T01:58:26.493Z,4.50
2023-05-09T02:00:29.295Z,4.17
2023-05-09T02:02:33.474Z,4.47
2023-05-09T02:04:36.856Z,4.17
2023-05-09T02:06:39.636Z,4.70
2023-05-09T02:08:42.443Z,4.60
2023-05-09T02:10:45.306Z,5.27
2023-05-09T02:12:47.135Z,5.30
2023-05-09T02:14:50.019Z,3.90
2023-05-09T02:16:52.844Z,3.90
2023-05-09T02:18:56.985Z,3.77
2023-05-09T02:20:59.805Z,3.93
2023-05-09T02:23:02.751Z,4.03
2023-05-09T02:25:07.307Z,3.73
2023-05-09T02:27:10.101Z,4.17
2023-05-09T02:29:12.916Z,4.80
2023-05-09T02:31:15.694Z,4.33
2023-05-09T02:33:18.510Z,4.00
2023-05-09T02:35:22.890Z,4.13
2023-05-09T02:37:25.785Z,4.37
2023-05-09T02:39:28.610Z,4.40
2023-05-09T02:41:31.390Z,4.27
2023-05-09T02:43:34.158Z,3.70
2023-05-09T02:45:37.034Z,5.00
2023-05-09T02:47:40.006Z,4.13
2023-05-09T02:49:42.838Z,3.60
2023-05-09T02:51:46.926Z,4.57
2023-05-09T02:53:49.695Z,4.00
2023-05-09T02:55:53.857Z,5.27
2023-05-09T02:58:09.240Z,4.00
2023-05-09T03:00:18.035Z,3.80
2023-05-09T03:02:20.921Z,4.20
2023-05-09T03:04:23.766Z,3.83
2023-05-09T03:06:26.527Z,4.40
2023-05-09T03:08:31.068Z,4.50
2023-05-09T03:10:33.838Z,4.40
2023-05-09T03:12:38.494Z,4.60
2023-05-09T03:14:41.307Z,4.90
2023-05-09T03:16:44.079Z,4.30
2023-05-09T03:18:46.879Z,4.90
2023-05-09T03:20:49.646Z,4.70
2023-05-09T03:22:52.474Z,4.20
2023-05-09T03:24:56.601Z,4.70
2023-05-09T03:26:59.393Z,4.80
2023-05-09T03:29:02.159Z,5.20
2023-05-09T03:31:04.984Z,4.33
2023-05-09T03:33:08.430Z,4.13
2023-05-09T03:35:11.191Z,4.87
2023-05-09T03:37:13.996Z,5.23
2023-05-09T03:39:16.758Z,4.90
2023-05-09T03:41:21.610Z,5.03
2023-05-09T03:43:24.395Z,4.67
2023-05-09T03:45:27.196Z,5.40
2023-05-09T03:47:30.007Z,4.67
2023-05-09T03:49:32.807Z,4.50
2023-05-09T03:51:35.687Z,5.30
2023-05-09T03:53:38.462Z,5.43
2023-05-09T03:55:41.341Z,4.50
2023-05-09T03:57:46.138Z,5.30
2023-05-09T03:59:48.982Z,5.40
2023-05-09T04:01:51.890Z,5.37
2023-05-09T04:03:54.867Z,5.20
2023-05-09T04:05:57.678Z,6.30
2023-05-09T04:08:00.473Z,5.60
2023-05-09T04:10:03.283Z,5.73
2023-05-09T04:12:06.570Z,4.73
2023-05-09T04:14:10.709Z,5.00
2023-05-09T04:16:13.558Z,4.57
2023-05-09T04:18:16.458Z,5.57
2023-05-09T04:20:19.232Z,5.03
2023-05-09T04:22:22.015Z,5.70
2023-05-09T04:24:24.888Z,4.80
2023-05-09T04:26:28.184Z,5.40
2023-05-09T04:28:31.419Z,5.30
2023-05-09T04:30:35.565Z,5.67
2023-05-09T04:32:38.866Z,5.27
2023-05-09T04:34:41.746Z,5.33
2023-05-09T04:36:44.577Z,5.60
2023-05-09T04:38:47.358Z,5.10
2023-05-09T04:40:50.152Z,5.00
2023-05-09T04:42:53.551Z,5.33
2023-05-09T04:44:56.321Z,5.20
2023-05-09T04:47:00.688Z,5.27
2023-05-09T04:49:03.738Z,6.17
2023-05-09T04:51:06.602Z,5.80
2023-05-09T04:53:09.365Z,4.53
2023-05-09T04:55:12.226Z,5.07
2023-05-09T04:57:18.311Z,5.43
2023-05-09T04:59:21.662Z,5.90
2023-05-09T05:01:24.457Z,5.43
2023-05-09T05:03:28.610Z,5.20
2023-05-09T05:05:33.008Z,5.17
2023-05-09T05:07:37.529Z,5.93
2023-05-09T05:09:40.926Z,6.37
2023-05-09T05:11:53.824Z,4.50
2023-05-09T05:14:02.604Z,5.50
2023-05-09T05:16:05.914Z,10.60
2023-05-09T05:18:08.772Z,5.70
2023-05-09T05:20:13.178Z,5.30
2023-05-09T05:22:16.314Z,4.63
2023-05-09T05:24:19.114Z,5.07
2023-05-09T05:26:22.028Z,5.77
2023-05-09T05:28:24.825Z,5.77
2023-05-09T05:30:27.613Z,4.93
2023-05-09T05:32:30.461Z,5.00
2023-05-09T05:34:33.331Z,4.50
2023-05-09T05:36:37.449Z,4.57
2023-05-09T05:38:40.230Z,5.60
2023-05-09T05:40:42.975Z,4.90
2023-05-09T05:42:46.626Z,4.50
2023-05-09T05:44:49.380Z,4.50
2023-05-09T05:46:52.147Z,5.20
2023-05-09T05:48:54.900Z,4.87
2023-05-09T05:50:58.217Z,4.83
2023-05-09T05:53:02.337Z,4.77
2023-05-09T05:55:05.632Z,4.67
2023-05-09T05:57:09.118Z,5.10
2023-05-09T05:59:13.354Z,5.27
2023-05-09T06:01:16.473Z,5.30
2023-05-09T06:03:19.367Z,5.20
2023-05-09T06:05:22.231Z,5.27
2023-05-09T06:07:25.111Z,4.53
2023-05-09T06:09:29.220Z,4.97
2023-05-09T06:11:32.004Z,5.33
2023-05-09T06:13:34.772Z,5.83
2023-05-09T06:15:37.551Z,4.60
2023-05-09T06:17:40.349Z,5.17
2023-05-09T06:19:43.168Z,5.20
2023-05-09T06:21:45.954Z,4.83
2023-05-09T06:24:05.778Z,5.10
2023-05-09T06:26:14.548Z,4.70
2023-05-09T06:28:17.305Z,5.00
2023-05-09T06:32:25.835Z,4.80
2023-05-09T06:34:28.633Z,5.30
2023-05-09T06:36:32.255Z,4.60
2023-05-09T06:38:35.287Z,5.57
2023-05-09T06:40:38.303Z,4.70
2023-05-09T06:42:42.459Z,5.00
2023-05-09T06:44:45.285Z,5.30
2023-05-09T06:46:48.134Z,4.47
2023-05-09T06:48:50.953Z,5.53
2023-05-09T06:50:53.757Z,5.10
2023-05-09T06:52:56.559Z,4.80
2023-05-09T06:54:59.336Z,4.87
2023-05-09T06:57:02.118Z,4.80
2023-05-09T06:59:06.250Z,6.23
2023-05-09T07:01:09.074Z,5.03
2023-05-09T07:03:11.922Z,5.70
2023-05-09T07:05:16.243Z,5.10
2023-05-09T07:07:19.288Z,5.47
2023-05-09T07:09:23.645Z,5.87
2023-05-09T07:11:26.934Z,5.73
2023-05-09T07:13:29.706Z,5.80
2023-05-09T07:15:41.103Z,5.43
2023-05-09T07:17:45.230Z,5.27
2023-05-09T07:19:48.048Z,5.20
2023-05-09T07:21:50.900Z,4.97
2023-05-09T07:23:53.665Z,5.90
2023-05-09T07:25:59.648Z,5.50
2023-05-09T07:28:02.420Z,5.13
2023-05-09T07:30:05.667Z,4.57
2023-05-09T07:32:10.113Z,5.07
2023-05-09T07:34:12.989Z,5.10
2023-05-09T07:36:17.093Z,5.10
2023-05-09T07:38:19.883Z,5.23
2023-05-09T07:40:22.676Z,5.30
2023-05-09T07:42:25.458Z,5.93
2023-05-09T07:44:28.327Z,5.57
2023-05-09T07:46:31.138Z,5.50
2023-05-09T07:48:35.512Z,5.27
2023-05-09T07:50:38.283Z,5.63
2023-05-09T07:52:41.090Z,5.53
2023-05-09T07:54:43.849Z,5.53
2023-05-09T07:56:46.629Z,5.97
2023-05-09T07:58:49.431Z,5.63
2023-05-09T08:00:52.190Z,5.20
2023-05-09T08:02:55.131Z,7.53
2023-05-09T08:04:59.372Z,5.93
2023-05-09T08:07:04.075Z,6.70
2023-05-09T08:09:06.864Z,6.60
2023-05-09T08:11:09.717Z,5.50
2023-05-09T08:13:14.499Z,5.37
2023-05-09T08:15:17.736Z,5.20
2023-05-09T08:17:20.783Z,5.70
2023-05-09T08:19:26.139Z,4.93
2023-05-09T08:21:30.422Z,5.33
2023-05-09T08:23:33.216Z,5.20
2023-05-09T08:25:36.032Z,5.20
2023-05-09T08:27:38.814Z,5.90
2023-05-09T08:29:41.652Z,5.10
2023-05-09T08:31:44.567Z,5.63
2023-05-09T08:33:47.420Z,5.77
2023-05-09T08:35:51.924Z,7.00
2023-05-09T08:37:56.074Z,5.97
2023-05-09T08:39:58.851Z,5.03
2023-05-09T08:42:02.375Z,5.83
2023-05-09T08:44:05.439Z,6.00
2023-05-09T08:46:09.232Z,6.33
2023-05-09T08:48:12.250Z,6.53
2023-05-09T08:50:17.494Z,5.97
2023-05-09T08:52:20.550Z,5.63
2023-05-09T08:54:24.854Z,6.83
2023-05-09T08:56:27.635Z,6.17
2023-05-09T08:58:30.458Z,6.67
2023-05-09T09:00:33.420Z,5.53
2023-05-09T09:02:36.238Z,6.40
2023-05-09T09:04:39.715Z,6.60
2023-05-09T09:06:42.504Z,6.00
2023-05-09T09:08:45.314Z,5.77
2023-05-09T09:10:49.589Z,6.20
2023-05-09T09:12:53.019Z,6.60
2023-05-09T09:14:56.107Z,7.07
2023-05-09T09:16:58.957Z,6.33
2023-05-09T09:19:01.745Z,6.23
2023-05-09T09:21:07.370Z,5.97
2023-05-09T09:23:11.465Z,6.67
2023-05-09T09:25:14.236Z,5.73
2023-05-09T09:27:19.292Z,7.00
2023-05-09T09:29:22.875Z,7.50
2023-05-09T09:31:27.511Z,7.43
2023-05-09T09:33:30.734Z,7.20
2023-05-09T09:35:33.522Z,8.10
2023-05-09T09:37:36.378Z,7.10
2023-05-09T09:39:39.162Z,7.83
2023-05-09T09:41:42.320Z,7.37
2023-05-09T09:43:47.210Z,7.43
2023-05-09T09:45:50.511Z,7.10
2023-05-09T09:47:54.467Z,6.00
2023-05-09T09:49:57.288Z,7.57
2023-05-09T09:52:00.180Z,7.47
2023-05-09T09:54:03.279Z,7.33
2023-05-09T09:56:06.430Z,7.07
2023-05-09T09:58:17.494Z,9.03
2023-05-09T10:00:27.291Z,8.53
2023-05-09T10:02:30.180Z,7.10
2023-05-09T10:04:34.177Z,7.70
2023-05-09T10:06:36.951Z,7.87
2023-05-09T10:08:39.904Z,8.67
2023-05-09T10:10:42.692Z,9.10
2023-05-09T10:12:45.846Z,8.50
2023-05-09T10:14:48.633Z,8.67
2023-05-09T10:16:53.583Z,9.83
2023-05-09T10:18:56.552Z,8.30
2023-05-09T10:21:01.916Z,7.97
2023-05-09T10:23:04.907Z,7.40
2023-05-09T10:25:13.217Z,8.00
2023-05-09T10:27:16.418Z,7.70
2023-05-09T10:29:22.829Z,8.50
2023-05-09T10:31:27.033Z,9.73
2023-05-09T10:33:35.376Z,8.10
2023-05-09T10:35:41.202Z,7.30
2023-05-09T10:37:44.062Z,8.10
2023-05-09T10:39:46.838Z,7.50
2023-05-09T10:41:50.722Z,7.60
2023-05-09T10:43:53.983Z,7.77
2023-05-09T10:45:56.826Z,7.60
2023-05-09T10:47:59.849Z,7.73
2023-05-09T10:50:04.059Z,6.70
2023-05-09T10:52:06.919Z,6.83
2023-05-09T10:54:30.582Z,7.67
2023-05-09T10:56:35.650Z,8.03
2023-05-09T10:58:40.742Z,7.60
2023-05-09T11:00:43.914Z,6.87
2023-05-09T11:03:03.784Z,7.30
2023-05-09T11:05:17.540Z,6.90
2023-05-09T11:07:24.283Z,6.77
2023-05-09T11:09:32.979Z,7.10
2023-05-09T11:11:36.043Z,7.17
2023-05-09T11:13:39.019Z,6.40
2023-05-09T11:15:52.486Z,7.63
2023-05-09T11:18:06.552Z,6.40
2023-05-09T11:20:10.161Z,7.07
2023-05-09T11:22:15.147Z,6.90
2023-05-09T11:24:18.544Z,6.63
2023-05-09T11:26:23.544Z,7.53
2023-05-09T11:28:30.723Z,7.27
2023-05-09T11:30:37.448Z,6.40
2023-05-09T11:32:47.517Z,6.23
2023-05-09T11:34:50.511Z,6.07
2023-05-09T11:36:54.485Z,6.30
2023-05-09T11:39:06.475Z,6.77
2023-05-09T11:41:09.395Z,6.40
2023-05-09T11:43:12.175Z,6.23
2023-05-09T11:45:15.435Z,6.40
2023-05-09T11:47:18.456Z,7.07
2023-05-09T11:49:21.246Z,7.00
2023-05-09T11:51:24.106Z,6.40
2023-05-09T11:53:26.964Z,6.10
2023-05-09T11:55:32.691Z,6.70
2023-05-09T11:57:36.282Z,6.57
2023-05-09T11:59:39.066Z,7.47
2023-05-09T12:01:42.523Z,6.70
2023-05-09T12:03:45.494Z,7.40
2023-05-09T12:05:49.240Z,7.57
2023-05-09T12:07:52.314Z,7.67
2023-05-09T12:09:55.223Z,6.93
2023-05-09T12:11:59.426Z,6.97
2023-05-09T12:14:02.234Z,6.87
2023-05-09T12:16:05.564Z,5.80
2023-05-09T12:18:08.925Z,6.43
2023-05-09T12:20:12.333Z,6.00
2023-05-09T12:22:15.098Z,6.50
2023-05-09T12:24:21.640Z,6.50
2023-05-09T12:26:24.427Z,6.37
2023-05-09T12:28:28.607Z,6.00
2023-05-09T12:30:31.361Z,6.70
2023-05-09T12:32:34.398Z,6.17
2023-05-09T12:34:37.296Z,6.53
2023-05-09T12:36:40.148Z,5.50
2023-05-09T12:38:44.390Z,5.90
2023-05-09T12:41:03.849Z,5.70
2023-05-09T12:43:06.892Z,5.47
2023-05-09T12:45:11.133Z,6.10
2023-05-09T12:47:14.344Z,5.33
2023-05-09T12:49:21.602Z,5.37
2023-05-09T12:51:24.488Z,6.20
2023-05-09T12:53:27.846Z,5.60
2023-05-09T12:55:31.679Z,6.50
2023-05-09T12:57:35.938Z,5.90
2023-05-09T12:59:40.991Z,5.80
2023-05-09T13:01:43.772Z,5.73
2023-05-09T13:03:46.609Z,6.50
2023-05-09T13:05:55.579Z,6.00
2023-05-09T13:07:58.401Z,6.10
2023-05-09T13:10:01.374Z,6.07
2023-05-09T13:12:04.746Z,5.60
2023-05-09T13:14:09.156Z,6.13
2023-05-09T13:16:14.078Z,5.40
2023-05-09T13:18:18.615Z,5.70
2023-05-09T13:20:21.425Z,6.10
2023-05-09T13:22:24.203Z,5.77
2023-05-09T13:24:27.137Z,5.93
2023-05-09T13:26:30.008Z,5.70
2023-05-09T13:28:32.802Z,5.80
2023-05-09T13:30:36.964Z,5.57
2023-05-09T13:32:39.758Z,6.23
2023-05-09T13:34:42.541Z,6.20
2023-05-09T13:36:45.290Z,5.70
2023-05-09T13:38:48.103Z,5.83
2023-05-09T13:40:51.527Z,6.53
2023-05-09T13:42:54.336Z,6.07
2023-05-09T13:44:57.107Z,5.50
2023-05-09T13:47:01.235Z,5.67
2023-05-09T13:49:04.431Z,5.47
2023-05-09T13:51:07.846Z,6.67
2023-05-09T13:53:10.676Z,4.97
2023-05-09T13:55:13.460Z,4.20
2023-05-09T13:57:16.247Z,4.80
2023-05-09T13:59:19.076Z,5.30
2023-05-09T14:01:22.193Z,5.80
2023-05-09T14:03:26.587Z,4.90
2023-05-09T14:05:29.526Z,5.03
2023-05-09T14:07:32.640Z,5.37
2023-05-09T14:09:39.891Z,5.80
2023-05-09T14:11:43.360Z,5.60
2023-05-09T14:13:46.126Z,4.90
2023-05-09T14:15:48.970Z,5.70
2023-05-09T14:17:51.799Z,5.30
2023-05-09T14:19:55.980Z,5.10
2023-05-09T14:21:58.833Z,5.63
2023-05-09T14:24:01.583Z,5.37
2023-05-09T14:26:04.348Z,5.20
2023-05-09T14:28:09.360Z,5.03
2023-05-09T14:30:13.386Z,5.27
2023-05-09T14:32:16.395Z,5.27
2023-05-09T14:34:19.208Z,5.50
2023-05-09T14:36:23.514Z,5.77
2023-05-09T14:38:26.888Z,5.80
2023-05-09T14:40:31.826Z,5.67
2023-05-09T14:42:35.468Z,5.63
2023-05-09T14:44:38.787Z,5.17
2023-05-09T14:46:41.654Z,5.83
2023-05-09T14:48:44.586Z,5.63
2023-05-09T14:50:47.416Z,5.60
2023-05-09T14:52:51.559Z,5.53
2023-05-09T14:54:54.331Z,5.13
2023-05-09T14:56:57.270Z,5.37
2023-05-09T14:59:00.175Z,5.63
2023-05-09T15:01:03.259Z,5.60
2023-05-09T15:03:06.163Z,5.43
2023-05-09T15:05:09.795Z,5.50
2023-05-09T15:07:12.695Z,5.30
2023-05-09T15:09:16.811Z,5.77
2023-05-09T15:11:19.594Z,6.23
2023-05-09T15:13:22.398Z,5.63
2023-05-09T15:15:25.295Z,6.30
2023-05-09T15:17:28.179Z,5.80
2023-05-09T15:19:32.470Z,5.77
2023-05-09T15:21:35.402Z,5.70
2023-05-09T15:23:39.584Z,5.20
2023-05-09T15:25:43.922Z,5.80
2023-05-09T15:27:46.758Z,5.70
2023-05-09T15:29:49.543Z,5.70
2023-05-09T15:31:52.370Z,5.70
2023-05-09T15:33:55.386Z,5.07
2023-05-09T15:35:58.584Z,6.03
2023-05-09T15:38:01.338Z,5.80
2023-05-09T15:40:04.398Z,5.90
2023-05-09T15:42:09.391Z,5.83
2023-05-09T15:44:12.296Z,5.50
2023-05-09T15:46:15.128Z,4.70
2023-05-09T15:48:18.078Z,5.50
2023-05-09T15:50:21.278Z,4.97
2023-05-09T15:52:24.054Z,5.70
2023-05-09T15:54:26.923Z,5.47
2023-05-09T15:56:29.697Z,5.93
2023-05-09T15:58:34.187Z,5.73
2023-05-09T16:00:37.307Z,5.93
2023-05-09T16:02:40.783Z,5.10
2023-05-09T16:04:44.169Z,6.20
2023-05-09T16:06:47.261Z,5.53
2023-05-09T16:08:50.057Z,5.90
2023-05-09T16:10:52.821Z,5.70
2023-05-09T16:12:55.632Z,5.80
2023-05-09T16:14:59.752Z,5.17
2023-05-09T16:17:03.451Z,4.87
2023-05-09T16:19:06.572Z,5.37
2023-05-09T16:21:09.432Z,5.83
2023-05-09T16:23:13.056Z,5.70
2023-05-09T16:25:16.927Z,5.10
2023-05-09T16:27:19.722Z,5.60
2023-05-09T16:29:22.885Z,5.53
2023-05-09T16:31:27.495Z,5.20
2023-05-09T16:33:30.310Z,4.90
2023-05-09T16:35:33.162Z,5.70
2023-05-09T16:37:35.955Z,7.20
2023-05-09T16:39:38.749Z,5.00
2023-05-09T16:41:41.519Z,5.80
2023-05-09T16:43:44.324Z,5.60
2023-05-09T16:45:48.016Z,7.27
2023-05-09T16:47:53.290Z,6.03
2023-05-09T16:49:56.104Z,5.03
2023-05-09T16:51:59.379Z,5.20
2023-05-09T16:54:02.169Z,5.67
2023-05-09T16:56:06.117Z,5.30
2023-05-09T16:58:08.898Z,6.23
2023-05-09T17:00:12.527Z,4.83
2023-05-09T17:02:15.530Z,4.90
2023-05-09T17:04:19.856Z,5.40
2023-05-09T17:06:22.691Z,4.50
2023-05-09T17:08:25.585Z,5.57
2023-05-09T17:10:28.627Z,5.50
2023-05-09T17:12:31.676Z,5.57
2023-05-09T17:14:34.432Z,7.37
2023-05-09T17:16:38.301Z,5.40
2023-05-09T17:18:45.828Z,4.63
2023-05-09T17:20:50.587Z,4.90
2023-05-09T17:22:53.421Z,5.30
2023-05-09T17:24:56.206Z,4.50
2023-05-09T17:26:59.371Z,4.93
2023-05-09T17:29:03.521Z,4.90
2023-05-09T17:31:06.490Z,5.07
2023-05-09T17:33:09.367Z,5.10
2023-05-09T17:35:12.433Z,4.57
2023-05-09T17:37:16.970Z,5.07
2023-05-09T17:39:19.738Z,4.40
2023-05-09T17:41:22.562Z,5.00
2023-05-09T17:43:27.688Z,5.00
2023-05-09T17:45:30.487Z,4.20
2023-05-09T17:47:33.769Z,4.67
2023-05-09T17:49:37.104Z,4.27
2023-05-09T17:51:39.867Z,4.10
2023-05-09T17:53:44.091Z,4.07
2023-05-09T17:55:46.994Z,4.00
2023-05-09T17:57:49.817Z,4.00
2023-05-09T17:59:52.595Z,4.00
2023-05-09T18:01:55.551Z,4.33
2023-05-09T18:03:58.413Z,4.00
2023-05-09T18:06:01.725Z,4.30
2023-05-09T18:08:04.689Z,3.40
2023-05-09T18:10:10.173Z,4.10
2023-05-09T18:12:12.971Z,3.70
2023-05-09T18:14:16.564Z,4.73
2023-05-09T18:16:19.502Z,4.10
2023-05-09T18:18:22.406Z,3.80
2023-05-09T18:20:25.260Z,4.07
2023-05-09T18:22:28.050Z,3.97
2023-05-09T18:24:30.811Z,3.60
2023-05-09T18:26:34.942Z,3.87
2023-05-09T18:28:40.074Z,4.17
2023-05-09T18:30:42.859Z,4.27
2023-05-09T18:32:45.668Z,3.53
2023-05-09T18:34:48.888Z,4.00
2023-05-09T18:36:52.554Z,4.10
2023-05-09T18:38:55.325Z,4.07
2023-05-09T18:40:58.109Z,3.73
2023-05-09T18:43:02.220Z,3.77
2023-05-09T18:45:05.854Z,4.17
2023-05-09T18:47:08.929Z,3.80
2023-05-09T18:49:11.719Z,3.70
2023-05-09T18:51:14.694Z,4.87
2023-05-09T18:53:17.512Z,4.23
2023-05-09T18:55:21.909Z,3.90
2023-05-09T18:57:24.722Z,3.80
2023-05-09T18:59:28.817Z,3.60
2023-05-09T19:01:31.573Z,4.20
2023-05-09T19:03:34.615Z,3.93
2023-05-09T19:05:37.385Z,4.03
2023-05-09T19:07:40.424Z,3.70
2023-05-09T19:09:43.288Z,3.77
2023-05-09T19:11:46.081Z,4.03
2023-05-09T19:13:49.386Z,3.33
2023-05-09T19:15:53.592Z,3.60
2023-05-09T19:17:56.496Z,3.90
2023-05-09T19:19:59.378Z,3.53
2023-05-09T19:22:02.191Z,3.83
2023-05-09T19:24:06.338Z,3.30
2023-05-09T19:26:09.822Z,3.93
2023-05-09T19:28:14.544Z,2.77
2023-05-09T19:30:17.906Z,3.53
2023-05-09T19:32:22.137Z,3.43
2023-05-09T19:34:24.956Z,3.17
2023-05-09T19:36:27.769Z,3.00
2023-05-09T19:38:31.603Z,3.17
2023-05-09T19:40:34.391Z,2.80
2023-05-09T19:42:37.774Z,3.25
2023-05-09T19:44:40.552Z,3.03
2023-05-09T19:46:43.858Z,3.97
2023-05-09T19:48:48.072Z,3.40
2023-05-09T19:50:51.809Z,3.40
2023-05-09T19:52:54.767Z,3.13
2023-05-09T19:54:57.698Z,3.40
2023-05-09T19:57:00.486Z,2.93
2023-05-09T19:59:03.262Z,3.00
2023-05-09T20:01:07.174Z,3.30
2023-05-09T20:03:10.192Z,3.40
2023-05-09T20:05:14.366Z,3.90
2023-05-09T20:07:17.435Z,2.90
2023-05-09T20:09:21.075Z,3.33
2023-05-09T20:11:23.909Z,3.00
2023-05-09T20:13:26.781Z,3.60
2023-05-09T20:15:29.757Z,3.00
2023-05-09T20:17:32.816Z,2.83
2023-05-09T20:19:36.175Z,2.57
2023-05-09T20:21:40.273Z,2.70
2023-05-09T20:23:43.088Z,3.10
2023-05-09T20:25:45.862Z,3.70
2023-05-09T20:27:48.628Z,3.03
2023-05-09T20:29:51.437Z,3.17
2023-05-09T20:31:54.212Z,3.27
2023-05-09T20:33:57.510Z,3.40
2023-05-09T20:36:00.778Z,3.03
2023-05-09T20:38:05.594Z,3.57
2023-05-09T20:40:09.386Z,3.10
2023-05-09T20:42:12.325Z,3.00
2023-05-09T20:44:15.476Z,3.37
2023-05-09T20:46:18.346Z,3.07
2023-05-09T20:48:23.221Z,3.10
2023-05-09T20:50:25.977Z,3.10
2023-05-09T20:52:28.759Z,3.03
2023-05-09T20:54:32.851Z,2.83
2023-05-09T20:56:35.768Z,3.40
2023-05-09T20:58:38.508Z,3.40
2023-05-09T21:00:41.350Z,3.60
2023-05-09T21:02:44.204Z,3.53
2023-05-09T21:04:47.002Z,3.50
2023-05-09T21:06:49.771Z,3.27
2023-05-09T21:08:52.518Z,3.53
2023-05-09T21:10:56.639Z,3.93
2023-05-09T21:13:00.008Z,3.30
2023-05-09T21:15:03.197Z,3.60
2023-05-09T21:17:06.016Z,3.37
2023-05-09T21:19:09.126Z,3.37
2023-05-09T21:21:12.247Z,2.97
2023-05-09T21:23:15.035Z,3.10
2023-05-09T21:25:18.027Z,2.93
2023-05-09T21:27:22.097Z,2.93
2023-05-09T21:29:24.801Z,3.37
2023-05-09T21:31:27.592Z,3.20
2023-05-09T21:33:30.753Z,3.60
2023-05-09T21:35:33.478Z,3.57
2023-05-09T21:37:36.201Z,3.20
2023-05-09T21:39:38.907Z,3.63
2023-05-09T21:41:42.702Z,2.97
2023-05-09T21:43:46.792Z,3.27
2023-05-09T21:45:49.501Z,3.20
2023-05-09T21:47:52.303Z,3.47
2023-05-09T21:49:55.245Z,3.43
2023-05-09T21:51:58.011Z,3.40
2023-05-09T21:54:01.321Z,2.73
2023-05-09T21:56:04.462Z,2.83
2023-05-09T21:58:07.195Z,3.20
2023-05-09T22:00:15.117Z,3.00
2023-05-09T22:02:18.485Z,2.83
2023-05-09T22:04:21.226Z,3.27
2023-05-09T22:06:23.957Z,3.00
2023-05-09T22:08:26.668Z,3.33
2023-05-09T22:10:29.401Z,2.83
2023-05-09T22:12:32.131Z,3.33
2023-05-09T22:14:42.006Z,3.60
2023-05-09T22:16:52.885Z,3.87
2023-05-09T22:18:55.816Z,3.90
2023-05-09T22:20:58.865Z,3.77
2023-05-09T22:23:01.665Z,3.77
2023-05-09T22:25:05.001Z,3.20
2023-05-09T22:27:07.753Z,3.53
2023-05-09T22:29:10.492Z,3.80
2023-05-09T22:31:13.223Z,3.13
2023-05-09T22:33:17.240Z,3.30
2023-05-09T22:35:20.001Z,3.67
2023-05-09T22:37:22.732Z,3.60
2023-05-09T22:39:25.473Z,3.77
2023-05-09T22:41:28.453Z,2.90
2023-05-09T22:43:38.886Z,3.30
2023-05-09T22:45:42.279Z,4.00
2023-05-09T22:47:45.114Z,3.40
2023-05-09T22:49:50.131Z,3.37
2023-05-09T22:51:52.894Z,3.63
2023-05-09T22:53:55.682Z,3.23
2023-05-09T22:55:58.648Z,3.03
2023-05-09T22:58:01.444Z,3.30
2023-05-09T23:00:04.685Z,3.30
2023-05-09T23:02:07.519Z,3.93
2023-05-09T23:04:10.361Z,3.57
2023-05-09T23:06:14.503Z,3.43
2023-05-09T23:08:17.288Z,3.20
2023-05-09T23:10:20.139Z,2.97
2023-05-09T23:12:23.131Z,3.57
2023-05-09T23:14:25.926Z,3.37
2023-05-09T23:16:28.709Z,2.90
2023-05-09T23:18:31.483Z,3.30
2023-05-09T23:20:34.240Z,4.10
2023-05-09T23:22:38.368Z,3.60
2023-05-09T23:24:41.251Z,3.70
2023-05-09T23:26:44.038Z,3.60
2023-05-09T23:28:46.796Z,3.93
2023-05-09T23:30:49.581Z,3.50
2023-05-09T23:32:53.415Z,3.37
2023-05-09T23:34:56.433Z,3.60
2023-05-09T23:36:59.209Z,3.80
2023-05-09T23:39:03.524Z,4.07
2023-05-09T23:41:06.356Z,3.20
2023-05-09T23:43:09.117Z,3.50
2023-05-09T23:45:12.815Z,3.37
2023-05-09T23:47:15.603Z,3.90
2023-05-09T23:49:18.379Z,3.80
2023-05-09T23:51:22.527Z,3.63
2023-05-09T23:53:26.119Z,3.60
2023-05-09T23:55:30.491Z,3.73
2023-05-09T23:57:33.249Z,3.90
2023-05-09T23:59:36.045Z,4.00
